Time;durP1;ratioP1;P1;durP2;ratioP2;P2;SDS_P1;SDS_P2;PMS_P1;PMS_P2;Temp;Humidity;BMP_temperature;BMP_pressure;BME280_temperature;BME280_humidity;BME280_pressure;Samples;Min_cycle;Max_cycle;Signal;HPM_P1;HPM_P2
2023/04/17 00:00:13;;;;;;;;;;;;;;;21.46;68.14;102438.69;5055909;28;19917;-53
2023/04/17 00:02:39;;;;;;;;;;;;;;;21.53;67.75;102432.34;5055709;28;19917;-50
2023/04/17 00:05:07;;;;;;;;;;;;;;;21.47;67.94;102439.56;5055401;28;19921;-55
2023/04/17 00:07:33;;;;;;;;;;;;;;;21.36;67.98;102433.00;5055441;28;19913;-52
2023/04/17 00:09:59;;;;;;;;;;;;;;;21.38;67.87;102424.59;5053213;28;19925;-53
2023/04/17 00:12:24;;;;;;;;;;;;;;;21.25;68.03;102429.16;5055472;28;19925;-52
2023/04/17 00:14:50;;;;;;;;;;;;;;;21.28;67.69;102425.97;5055497;28;19921;-54
2023/04/17 00:17:15;;;;;;;;;;;;;;;21.14;67.90;102430.75;5055387;28;19949;-53
2023/04/17 00:19:41;;;;;;;;;;;;;;;21.18;67.65;102431.09;5055564;28;19916;-53
2023/04/17 00:22:06;;;;;;;;;;;;;;;21.26;67.24;102428.09;5055214;28;19945;-54
2023/04/17 00:24:32;;;;;;;;;;;;;;;21.09;67.53;102421.59;5054842;28;19917;-52
2023/04/17 00:26:57;;;;;;;;;;;;;;;21.03;68.03;102424.19;5054761;28;19917;-52
2023/04/17 00:29:22;;;;;;;;;;;;;;;21.12;67.81;102427.44;5054993;28;19917;-52
2023/04/17 00:31:48;;;;;;;;;;;;;;;22.34;64.23;102423.75;5037834;28;19956;-54
2023/04/17 00:34:13;;;;;;;;;;;;;;;21.43;66.47;102422.00;5037826;28;19921;-52
2023/04/17 00:36:38;;;;;;;;;;;;;;;21.27;66.87;102418.88;5037735;28;19935;-49
2023/04/17 00:39:04;;;;;;;;;;;;;;;20.90;68.35;102418.88;5037331;28;19928;-54
2023/04/17 00:41:30;;;;;;;;;;;;;;;21.00;68.38;102419.22;5037666;28;19929;-50
2023/04/17 00:43:55;;;;;;;;;;;;;;;21.20;67.84;102426.25;5055332;28;19921;-53
2023/04/17 00:46:22;;;;;;;;;;;;;;;21.06;68.38;102418.28;5038209;28;19917;-54
2023/04/17 00:48:48;;;;;;;;;;;;;;;21.80;68.00;102421.91;5055147;28;19921;-55
2023/04/17 00:51:14;;;;;;;;;;;;;;;21.06;68.16;102414.72;5055391;28;19928;-53
2023/04/17 00:53:40;;;;;;;;;;;;;;;21.12;67.99;102415.72;5073815;28;19927;-54
2023/04/17 00:56:05;;;;;;;;;;;;;;;21.44;67.85;102415.50;5073739;28;19920;-53
2023/04/17 00:58:31;;;;;;;;;;;;;;;21.88;65.68;102416.13;5074280;28;19980;-55
2023/04/17 01:00:57;;;;;;;;;;;;;;;21.53;65.98;102416.84;5075169;28;19917;-54
2023/04/17 01:03:22;;;;;;;;;;;;;;;21.53;66.66;102416.84;5073570;28;19945;-51
2023/04/17 01:05:49;;;;;;;;;;;;;;;21.59;66.10;102415.09;5073637;28;19984;-50
2023/04/17 01:08:15;;;;;;;;;;;;;;;20.98;68.46;102418.56;5075430;28;20012;-53
2023/04/17 01:10:40;;;;;;;;;;;;;;;20.88;68.61;102415.56;5074062;28;19917;-51
2023/04/17 01:13:07;;;;;;;;;;;;;;;20.95;68.30;102412.78;5075067;28;19921;-56
2023/04/17 01:15:33;;;;;;;;;;;;;;;20.86;68.95;102414.97;5072749;28;19916;-52
2023/04/17 01:17:59;;;;;;;;;;;;;;;20.94;68.98;102416.56;5072877;28;19944;-53
2023/04/17 01:20:28;;;;;;;;;;;;;;;21.01;68.60;102410.00;5073093;28;19937;-52
2023/04/17 01:22:54;;;;;;;;;;;;;;;20.88;68.92;102415.56;5073131;28;19917;-56
2023/04/17 01:25:19;;;;;;;;;;;;;;;20.87;68.75;102417.44;5074443;28;19955;-55
2023/04/17 01:27:45;;;;;;;;;;;;;;;20.71;68.65;102409.88;5073819;28;19917;-54
2023/04/17 01:30:10;;;;;;;;;;;;;;;20.90;68.27;102417.03;5073254;28;19963;-53
2023/04/17 01:32:44;;;;;;;;;;;;;;;20.86;68.13;102421.22;5073872;28;19923;-55
2023/04/17 01:35:09;;;;;;;;;;;;;;;20.83;68.50;102421.69;5073962;28;19992;-55
2023/04/17 01:37:35;;;;;;;;;;;;;;;20.88;67.69;102418.28;5074453;28;19924;-56
2023/04/17 01:40:01;;;;;;;;;;;;;;;20.48;68.30;102425.75;5070552;28;19952;-55
2023/04/17 01:42:28;;;;;;;;;;;;;;;20.67;67.83;102425.78;5073114;28;19921;-55
2023/04/17 01:44:53;;;;;;;;;;;;;;;20.65;67.32;102425.19;5072201;28;19917;-54
2023/04/17 01:47:19;;;;;;;;;;;;;;;20.73;66.71;102430.31;5069556;28;19940;-56
2023/04/17 01:49:44;;;;;;;;;;;;;;;20.65;66.87;102422.47;5073491;28;19916;-54
2023/04/17 01:52:10;;;;;;;;;;;;;;;20.56;66.95;102432.81;5073355;28;19950;-53
2023/04/17 01:54:36;;;;;;;;;;;;;;;20.61;66.84;102438.38;5082468;28;19939;-52
2023/04/17 01:57:01;;;;;;;;;;;;;;;20.63;66.95;102432.75;5073487;28;20552;-53
2023/04/17 01:59:27;;;;;;;;;;;;;;;20.60;67.54;102425.84;5072283;28;19917;-55
2023/04/17 02:01:52;;;;;;;;;;;;;;;20.61;67.76;102432.13;5073584;28;19939;-54
2023/04/17 02:04:18;;;;;;;;;;;;;;;20.58;67.82;102432.59;5073211;28;19917;-54
2023/04/17 02:06:43;;;;;;;;;;;;;;;20.56;67.97;102430.09;5074165;28;19960;-55
2023/04/17 02:09:09;;;;;;;;;;;;;;;20.29;68.87;102421.34;5073230;28;19939;-51
2023/04/17 02:11:37;;;;;;;;;;;;;;;20.60;68.26;102431.28;5073357;28;19921;-55
2023/04/17 02:14:02;;;;;;;;;;;;;;;20.53;68.16;102433.25;5070850;28;19951;-56
2023/04/17 02:16:28;;;;;;;;;;;;;;;20.40;68.89;102439.66;5073427;28;19924;-55
2023/04/17 02:18:54;;;;;;;;;;;;;;;20.52;68.45;102436.19;5073945;28;19988;-56
2023/04/17 02:21:20;;;;;;;;;;;;;;;20.47;68.92;102436.88;5074063;28;19956;-54
2023/04/17 02:23:46;;;;;;;;;;;;;;;20.53;68.73;102424.25;5073924;28;19917;-53
2023/04/17 02:26:11;;;;;;;;;;;;;;;20.35;69.15;102425.91;5073782;28;19927;-56
2023/04/17 02:28:37;;;;;;;;;;;;;;;20.35;69.47;102423.19;5072817;28;19913;-53
2023/04/17 02:31:07;;;;;;;;;;;;;;;20.52;69.00;102425.31;5073889;28;19932;-51
2023/04/17 02:33:34;;;;;;;;;;;;;;;20.63;68.59;102424.59;5083134;28;19920;-53
2023/04/17 02:35:59;;;;;;;;;;;;;;;20.34;69.38;102427.78;5073771;28;19916;-56
2023/04/17 02:38:33;;;;;;;;;;;;;;;20.57;69.04;102420.06;5071197;28;19917;-53
2023/04/17 02:40:58;;;;;;;;;;;;;;;20.53;69.35;102424.25;5073304;28;19978;-54
2023/04/17 02:43:24;;;;;;;;;;;;;;;20.56;69.54;102418.41;5072367;28;20008;-53
2023/04/17 02:45:50;;;;;;;;;;;;;;;20.55;69.68;102422.19;5070137;28;19927;-53
2023/04/17 02:48:16;;;;;;;;;;;;;;;20.42;70.25;102423.94;5072789;28;19938;-55
2023/04/17 02:50:41;;;;;;;;;;;;;;;20.55;70.00;102433.84;5071780;28;19912;-55
2023/04/17 02:53:12;;;;;;;;;;;;;;;20.58;69.85;102424.44;5071559;28;19921;-54
2023/04/17 02:55:37;;;;;;;;;;;;;;;20.59;69.88;102420.66;5072875;28;19939;-56
2023/04/17 02:58:03;;;;;;;;;;;;;;;20.60;69.47;102425.03;5073411;28;19916;-55
2023/04/17 03:00:28;;;;;;;;;;;;;;;20.58;69.11;102424.44;5072838;28;19967;-52
2023/04/17 03:02:54;;;;;;;;;;;;;;;20.60;68.75;102425.03;5073533;28;19959;-52
2023/04/17 03:05:22;;;;;;;;;;;;;;;20.37;69.78;102431.94;5073498;28;19921;-53
2023/04/17 03:07:51;;;;;;;;;;;;;;;19.94;71.20;102425.38;5082995;28;20008;-52
2023/04/17 03:10:17;;;;;;;;;;;;;;;19.86;72.13;102434.63;5068587;28;19939;-53
2023/04/17 03:12:43;;;;;;;;;;;;;;;19.85;72.06;102427.53;5076680;28;19921;-55
2023/04/17 03:15:11;;;;;;;;;;;;;;;20.24;71.25;102432.06;5088711;28;19921;-55
2023/04/17 03:17:37;;;;;;;;;;;;;;;20.27;70.76;102431.59;5076588;28;19948;-55
2023/04/17 03:20:06;;;;;;;;;;;;;;;20.28;70.98;102438.69;5077317;28;19916;-55
2023/04/17 03:22:31;;;;;;;;;;;;;;;20.54;69.76;102436.81;5074224;28;19916;-52
2023/04/17 03:24:57;;;;;;;;;;;;;;;20.42;70.16;102434.81;5076146;28;19921;-55
2023/04/17 03:27:25;;;;;;;;;;;;;;;20.22;71.10;102434.16;5076197;28;19917;-52
2023/04/17 03:29:53;;;;;;;;;;;;;;;20.18;71.04;102433.75;5071075;28;19976;-56
2023/04/17 03:32:19;;;;;;;;;;;;;;;20.15;71.46;102435.06;5075470;28;19921;-56
2023/04/17 03:34:44;;;;;;;;;;;;;;;20.09;71.90;102427.78;5076937;28;19916;-53
2023/04/17 03:37:10;;;;;;;;;;;;;;;20.05;72.00;102434.69;5075637;28;19980;-54
2023/04/17 03:39:36;;;;;;;;;;;;;;;19.97;72.30;102432.25;5070570;28;19917;-54
2023/04/17 03:42:01;;;;;;;;;;;;;;;19.70;74.12;102435.13;5075802;28;20379;-52
2023/04/17 03:44:27;;;;;;;;;;;;;;;20.04;73.08;102435.75;5075901;28;19935;-55
2023/04/17 03:46:52;;;;;;;;;;;;;;;20.08;72.51;102434.28;5071761;28;19951;-55
2023/04/17 03:49:18;;;;;;;;;;;;;;;19.99;72.86;102422.00;5089591;28;19917;-57
2023/04/17 03:51:44;;;;;;;;;;;;;;;20.11;72.11;102428.41;5071788;28;19921;-55
2023/04/17 03:54:15;;;;;;;;;;;;;;;20.01;72.74;102428.91;5075848;28;19936;-53
2023/04/17 03:56:43;;;;;;;;;;;;;;;19.99;72.91;102427.44;5073937;28;19951;-52
2023/04/17 03:59:10;;;;;;;;;;;;;;;20.10;72.42;102429.47;5074953;28;20319;-54
2023/04/17 04:01:41;;;;;;;;;;;;;;;20.06;72.54;102431.78;5075575;28;19971;-57
2023/04/17 04:04:12;;;;;;;;;;;;;;;19.66;74.08;102433.91;5075670;28;19917;-51
2023/04/17 04:06:41;;;;;;;;;;;;;;;19.89;73.47;102431.44;5075761;28;19908;-54
2023/04/17 04:09:11;;;;;;;;;;;;;;;19.90;73.56;102435.84;5073756;28;19931;-54
2023/04/17 04:11:36;;;;;;;;;;;;;;;19.77;73.95;102435.91;5075270;28;19917;-54
2023/04/17 04:14:02;;;;;;;;;;;;;;;19.90;73.80;102440.41;5075352;28;19988;-52
2023/04/17 04:16:28;;;;;;;;;;;;;;;19.83;74.02;102435.03;5075606;28;19923;-53
2023/04/17 04:19:02;;;;;;;;;;;;;;;19.86;73.63;102437.31;5071950;28;19948;-52
2023/04/17 04:21:29;;;;;;;;;;;;;;;19.73;74.37;102431.97;5075852;28;19996;-55
2023/04/17 04:23:55;;;;;;;;;;;;;;;19.83;74.36;102436.94;5074080;28;19972;-54
2023/04/17 04:26:20;;;;;;;;;;;;;;;19.83;74.06;102440.44;5076165;28;19932;-52
2023/04/17 04:28:51;;;;;;;;;;;;;;;19.85;74.40;102442.97;5074827;28;19921;-52
2023/04/17 04:31:28;;;;;;;;;;;;;;;19.89;73.66;102436.88;5073827;28;19992;-52
2023/04/17 04:33:55;;;;;;;;;;;;;;;20.16;72.98;102444.00;5071924;28;19920;-53
2023/04/17 04:36:21;;;;;;;;;;;;;;;20.06;73.15;102447.22;5074790;28;19925;-54
2023/04/17 04:38:58;;;;;;;;;;;;;;;20.14;72.71;102446.97;5073970;28;19991;-52
2023/04/17 04:41:28;;;;;;;;;;;;;;;20.25;72.41;102450.00;5074835;28;19916;-54
2023/04/17 04:43:54;;;;;;;;;;;;;;;20.86;70.58;102455.75;5075195;28;20000;-53
2023/04/17 04:46:19;;;;;;;;;;;;;;;20.98;68.65;102451.22;5055151;28;19936;-55
2023/04/17 04:48:47;;;;;;;;;;;;;;;20.51;69.68;102453.53;5062666;28;19920;-52
2023/04/17 04:51:13;;;;;;;;;;;;;;;20.31;71.07;102454.56;5072856;28;19943;-55
2023/04/17 04:53:40;;;;;;;;;;;;;;;20.31;71.51;102449.97;5083354;28;19925;-52
2023/04/17 04:56:06;;;;;;;;;;;;;;;20.39;71.80;102451.56;5072070;28;19971;-55
2023/04/17 04:58:33;;;;;;;;;;;;;;;20.34;72.11;102449.50;5075264;28;19917;-56
2023/04/17 05:01:00;;;;;;;;;;;;;;;20.31;72.25;102449.16;5070439;28;19917;-50
2023/04/17 05:03:32;;;;;;;;;;;;;;;20.41;71.97;102449.47;5074684;28;19916;-50
2023/04/17 05:05:59;;;;;;;;;;;;;;;20.31;72.27;102457.28;5073487;28;19939;-54
2023/04/17 05:08:32;;;;;;;;;;;;;;;20.39;71.66;102462.44;5073448;28;19923;-50
2023/04/17 05:11:07;;;;;;;;;;;;;;;20.44;71.54;102456.34;5069476;28;19921;-53
2023/04/17 05:13:33;;;;;;;;;;;;;;;20.53;71.48;102454.16;5069249;28;19932;-52
2023/04/17 05:15:59;;;;;;;;;;;;;;;20.39;71.58;102458.88;5070906;28;19916;-53
2023/04/17 05:18:26;;;;;;;;;;;;;;;20.24;72.00;102460.06;5074289;28;20295;-56
2023/04/17 05:20:51;;;;;;;;;;;;;;;20.34;71.89;102471.25;5075090;28;19917;-55
2023/04/17 05:23:20;;;;;;;;;;;;;;;20.42;71.65;102469.31;5071740;28;19916;-54
2023/04/17 05:25:47;;;;;;;;;;;;;;;20.37;71.36;102469.13;5065332;28;19921;-56
2023/04/17 05:28:13;;;;;;;;;;;;;;;20.46;71.07;102474.06;5073145;28;19917;-55
2023/04/17 05:30:39;;;;;;;;;;;;;;;20.39;71.22;102473.31;5070412;28;19959;-54
2023/04/17 05:33:13;;;;;;;;;;;;;;;20.40;71.53;102485.84;5070265;28;19921;-49
2023/04/17 05:35:46;;;;;;;;;;;;;;;19.98;72.60;102480.94;5073640;28;19968;-54
2023/04/17 05:38:11;;;;;;;;;;;;;;;20.17;72.42;102483.69;5073605;28;19931;-52
2023/04/17 05:40:37;;;;;;;;;;;;;;;20.14;72.34;102482.28;5073007;28;19927;-52
2023/04/17 05:43:06;;;;;;;;;;;;;;;20.12;72.04;102483.53;5072672;28;19923;-54
2023/04/17 05:45:32;;;;;;;;;;;;;;;20.12;72.36;102480.81;5074035;28;19955;-57
2023/04/17 05:47:58;;;;;;;;;;;;;;;19.77;73.58;102482.91;5073118;28;19917;-55
2023/04/17 05:50:23;;;;;;;;;;;;;;;20.24;72.21;102486.38;5074202;28;19948;-51
2023/04/17 05:52:49;;;;;;;;;;;;;;;20.04;73.03;102488.19;5073536;28;19935;-52
2023/04/17 05:55:15;;;;;;;;;;;;;;;20.31;71.87;102492.59;5085027;28;19980;-52
2023/04/17 05:57:42;;;;;;;;;;;;;;;20.34;71.87;102490.25;5072969;28;19927;-53
2023/04/17 06:00:09;;;;;;;;;;;;;;;20.43;71.71;102498.16;5074061;28;19920;-54
2023/04/17 06:02:41;;;;;;;;;;;;;;;20.41;71.85;102495.66;5074002;28;19948;-51
2023/04/17 06:05:08;;;;;;;;;;;;;;;20.43;71.42;102498.97;5073107;28;19916;-55
2023/04/17 06:07:37;;;;;;;;;;;;;;;20.35;71.81;102499.25;5071100;28;19939;-50
2023/04/17 06:10:04;;;;;;;;;;;;;;;20.63;70.40;102492.53;5071638;28;19939;-56
2023/04/17 06:12:31;;;;;;;;;;;;;;;19.56;74.01;102492.16;5071158;28;19963;-51
2023/04/17 06:14:56;;;;;;;;;;;;;;;20.07;73.58;102500.50;5073199;28;19916;-56
2023/04/17 06:17:22;;;;;;;;;;;;;;;20.02;73.83;102506.59;5070223;28;19980;-53
2023/04/17 06:19:48;;;;;;;;;;;;;;;20.27;72.23;102503.06;5070848;28;19917;-52
2023/04/17 06:22:13;;;;;;;;;;;;;;;20.19;72.28;102509.59;5072378;28;19923;-55
2023/04/17 06:24:39;;;;;;;;;;;;;;;20.15;72.47;102508.38;5073933;28;19916;-54
2023/04/17 06:27:04;;;;;;;;;;;;;;;20.13;72.46;102505.06;5072635;28;19917;-51
2023/04/17 06:29:30;;;;;;;;;;;;;;;20.10;72.05;102508.22;5073965;28;19948;-54
2023/04/17 06:31:55;;;;;;;;;;;;;;;20.36;71.67;102517.22;5073290;28;19928;-55
2023/04/17 06:34:21;;;;;;;;;;;;;;;20.54;71.11;102512.91;5072845;28;19936;-54
2023/04/17 06:36:47;;;;;;;;;;;;;;;20.33;71.71;102517.66;5072599;28;19971;-54
2023/04/17 06:39:15;;;;;;;;;;;;;;;20.40;71.59;102515.72;5072650;28;19920;-52
2023/04/17 06:41:40;;;;;;;;;;;;;;;20.54;71.00;102519.16;5070230;28;19942;-52
2023/04/17 06:44:06;;;;;;;;;;;;;;;20.04;72.25;102523.50;5071018;28;19917;-51
2023/04/17 06:46:45;;;;;;;;;;;;;;;20.44;71.08;102530.53;5070081;28;19951;-52
2023/04/17 06:49:11;;;;;;;;;;;;;;;20.50;70.68;102523.38;5072900;28;19916;-53
2023/04/17 06:51:36;;;;;;;;;;;;;;;20.14;71.96;102528.44;5072915;28;19923;-50
2023/04/17 06:54:02;;;;;;;;;;;;;;;20.37;71.89;102534.34;5073282;28;19952;-55
2023/04/17 06:56:28;;;;;;;;;;;;;;;20.63;70.54;102536.03;5073261;28;19916;-54
2023/04/17 06:58:53;;;;;;;;;;;;;;;20.57;70.38;102539.63;5073272;28;19943;-51
2023/04/17 07:01:19;;;;;;;;;;;;;;;20.90;69.77;102538.53;5072554;28;19949;-55
2023/04/17 07:03:45;;;;;;;;;;;;;;;20.59;70.13;102542.97;5073411;28;19917;-55
2023/04/17 07:06:11;;;;;;;;;;;;;;;20.28;70.64;102542.75;5073276;28;19932;-53
2023/04/17 07:08:36;;;;;;;;;;;;;;;20.27;70.89;102543.81;5073112;28;19921;-54
2023/04/17 07:11:02;;;;;;;;;;;;;;;20.57;70.37;102548.59;5072844;28;19917;-51
2023/04/17 07:13:30;;;;;;;;;;;;;;;20.40;70.91;102550.19;5072680;28;20512;-54
2023/04/17 07:15:56;;;;;;;;;;;;;;;20.83;68.91;102551.38;5073006;28;19980;-53
2023/04/17 07:18:22;;;;;;;;;;;;;;;20.11;70.28;102566.91;5072797;28;19924;-53
2023/04/17 07:20:48;;;;;;;;;;;;;;;20.20;71.03;102556.63;5072788;28;19924;-54
2023/04/17 07:23:13;;;;;;;;;;;;;;;20.85;68.37;102569.09;5072796;28;19917;-56
2023/04/17 07:25:38;;;;;;;;;;;;;;;20.74;68.93;102573.34;5072388;28;20000;-52
2023/04/17 07:28:04;;;;;;;;;;;;;;;20.71;68.75;102572.97;5073050;28;19916;-52
2023/04/17 07:30:29;;;;;;;;;;;;;;;20.88;68.01;102579.56;5071749;28;19917;-52
2023/04/17 07:32:55;;;;;;;;;;;;;;;20.81;68.56;102583.38;5072614;28;19999;-55
2023/04/17 07:35:21;;;;;;;;;;;;;;;20.89;68.16;102583.94;5072766;28;19925;-54
2023/04/17 07:37:46;;;;;;;;;;;;;;;20.66;69.12;102586.41;5072911;28;19917;-54
2023/04/17 07:40:13;;;;;;;;;;;;;;;20.73;68.90;102576.31;5072830;28;19927;-54
2023/04/17 07:42:38;;;;;;;;;;;;;;;21.00;68.10;102582.38;5072653;28;19916;-52
2023/04/17 07:45:04;;;;;;;;;;;;;;;21.00;67.95;102576.94;5072987;28;19917;-54
2023/04/17 07:47:30;;;;;;;;;;;;;;;20.64;68.57;102583.91;5072818;28;19944;-52
2023/04/17 07:49:57;;;;;;;;;;;;;;;20.77;67.91;102572.94;5072729;28;19921;-53
2023/04/17 07:52:23;;;;;;;;;;;;;;;20.97;67.78;102574.66;5072040;28;19920;-53
2023/04/17 07:54:48;;;;;;;;;;;;;;;20.51;68.49;102573.13;5072742;28;19925;-55
2023/04/17 07:57:14;;;;;;;;;;;;;;;20.99;68.27;102569.84;5074768;28;19920;-54
2023/04/17 07:59:40;;;;;;;;;;;;;;;21.25;67.49;102567.06;5076055;28;19939;-56
2023/04/17 08:02:06;;;;;;;;;;;;;;;21.24;67.18;102577.13;5075952;28;19987;-56
2023/04/17 08:04:31;;;;;;;;;;;;;;;21.16;67.09;102574.69;5076262;28;19920;-53
2023/04/17 08:06:58;;;;;;;;;;;;;;;21.82;65.45;102572.28;5076303;28;19924;-52
2023/04/17 08:09:24;;;;;;;;;;;;;;;21.06;66.58;102573.31;5074464;28;19916;-51
2023/04/17 08:11:50;;;;;;;;;;;;;;;21.00;66.82;102571.50;5076436;28;19928;-54
2023/04/17 08:14:16;;;;;;;;;;;;;;;21.11;66.92;102571.81;5075833;28;19959;-52
2023/04/17 08:16:41;;;;;;;;;;;;;;;21.69;65.40;102578.72;5076164;28;20402;-54
2023/04/17 08:19:07;;;;;;;;;;;;;;;22.17;64.38;102587.13;5075971;28;19925;-53
2023/04/17 08:21:32;;;;;;;;;;;;;;;21.87;64.42;102583.31;5076183;28;19964;-52
2023/04/17 08:23:58;;;;;;;;;;;;;;;21.65;64.09;102582.97;5075652;28;20401;-52
2023/04/17 08:26:23;;;;;;;;;;;;;;;21.85;62.98;102582.72;5075993;28;19916;-53
2023/04/17 08:28:48;;;;;;;;;;;;;;;22.01;62.98;102583.16;5073249;28;19921;-52
2023/04/17 08:31:14;;;;;;;;;;;;;;;22.24;63.05;102581.56;5074323;28;19964;-54
2023/04/17 08:33:39;;;;;;;;;;;;;;;22.31;62.73;102579.56;5075562;28;20391;-55
2023/04/17 08:36:08;;;;;;;;;;;;;;;22.60;61.66;102588.81;5075846;28;19933;-52
2023/04/17 08:38:33;;;;;;;;;;;;;;;22.85;60.72;102592.41;5075653;28;20003;-53
2023/04/17 08:41:02;;;;;;;;;;;;;;;23.29;60.33;102595.59;5074321;28;20469;-52
2023/04/17 08:43:29;;;;;;;;;;;;;;;23.51;58.72;102586.78;5075493;28;19984;-54
2023/04/17 08:45:55;;;;;;;;;;;;;;;23.44;58.68;102580.63;5075383;28;19984;-54
2023/04/17 08:48:21;;;;;;;;;;;;;;;24.19;56.58;102580.78;5075489;28;19943;-52
2023/04/17 08:50:48;;;;;;;;;;;;;;;24.16;56.37;102576.59;5075229;28;19946;-53
2023/04/17 08:53:14;;;;;;;;;;;;;;;24.33;56.00;102575.81;5074678;28;19925;-54
2023/04/17 08:55:40;;;;;;;;;;;;;;;23.87;56.85;102579.31;5075003;28;19917;-57
2023/04/17 08:58:07;;;;;;;;;;;;;;;24.14;55.47;102581.50;5075099;28;19948;-54
2023/04/17 09:00:35;;;;;;;;;;;;;;;24.23;55.29;102581.13;5075162;28;19923;-55
2023/04/17 09:03:02;;;;;;;;;;;;;;;24.37;55.49;102582.44;5074683;28;19916;-54
2023/04/17 09:05:38;;;;;;;;;;;;;;;24.76;54.46;102582.56;5074944;28;19935;-56
2023/04/17 09:08:08;;;;;;;;;;;;;;;25.04;53.68;102591.75;5074049;28;19917;-53
2023/04/17 09:10:47;;;;;;;;;;;;;;;25.44;53.36;102591.72;5073259;28;19924;-54
2023/04/17 09:13:13;;;;;;;;;;;;;;;25.12;53.15;102593.22;5074923;28;19920;-57
2023/04/17 09:15:39;;;;;;;;;;;;;;;25.24;52.69;102590.38;5075148;28;19925;-57
2023/04/17 09:18:04;;;;;;;;;;;;;;;25.81;51.89;102601.25;5074906;28;19917;-55
2023/04/17 09:20:29;;;;;;;;;;;;;;;25.90;51.36;102603.28;5074586;28;19995;-55
2023/04/17 09:23:02;;;;;;;;;;;;;;;26.30;50.31;102595.75;5075077;28;19924;-53
2023/04/17 09:25:27;;;;;;;;;;;;;;;26.34;50.40;102601.56;5075067;28;19923;-54
2023/04/17 09:27:54;;;;;;;;;;;;;;;26.28;50.65;102597.09;5075066;28;19987;-57
2023/04/17 09:30:20;;;;;;;;;;;;;;;26.60;50.34;102607.25;5074508;28;19917;-55
2023/04/17 09:32:45;;;;;;;;;;;;;;;26.73;49.80;102604.03;5074701;28;19993;-57
2023/04/17 09:35:21;;;;;;;;;;;;;;;26.88;49.60;102605.28;5074654;28;19920;-54
2023/04/17 09:37:50;;;;;;;;;;;;;;;26.45;49.71;102608.75;5074487;28;19947;-54
2023/04/17 09:40:19;;;;;;;;;;;;;;;26.29;49.70;102604.22;5074427;28;19928;-54
2023/04/17 09:42:57;;;;;;;;;;;;;;;26.11;50.10;102606.22;5074393;28;19924;-56
2023/04/17 09:45:23;;;;;;;;;;;;;;;25.95;50.01;102607.16;5071721;28;19999;-56
2023/04/17 09:47:49;;;;;;;;;;;;;;;25.80;50.35;102608.63;5073360;28;19943;-56
2023/04/17 09:50:17;;;;;;;;;;;;;;;25.88;50.26;102605.44;5074072;28;19917;-56
2023/04/17 09:52:42;;;;;;;;;;;;;;;25.65;50.35;102606.53;5063599;28;19928;-55
2023/04/17 09:55:09;;;;;;;;;;;;;;;25.56;50.68;102619.03;5051789;28;19917;-53
2023/04/17 09:57:36;;;;;;;;;;;;;;;25.92;49.97;102611.22;5054138;28;19916;-52
2023/04/17 10:00:04;;;;;;;;;;;;;;;25.55;50.52;102612.72;5054201;28;19917;-52
2023/04/17 10:02:31;;;;;;;;;;;;;;;26.20;50.41;102612.94;5053948;28;19955;-53
2023/04/17 10:04:56;;;;;;;;;;;;;;;26.61;48.89;102622.63;5034441;28;19917;-55
2023/04/17 10:07:22;;;;;;;;;;;;;;;26.91;48.65;102618.47;5054177;28;20003;-53
2023/04/17 10:09:47;;;;;;;;;;;;;;;27.33;47.71;102616.78;5053940;28;19917;-55
2023/04/17 10:12:15;;;;;;;;;;;;;;;28.24;46.42;102624.03;5053769;28;19975;-57
2023/04/17 10:14:43;;;;;;;;;;;;;;;28.04;46.54;102614.63;5053624;28;19921;-55
2023/04/17 10:17:21;;;;;;;;;;;;;;;28.83;45.01;102613.59;5053287;28;19948;-54
2023/04/17 10:19:46;;;;;;;;;;;;;;;30.55;42.58;102615.25;5035080;28;19996;-54
2023/04/17 10:22:16;;;;;;;;;;;;;;;31.87;40.36;102630.97;5053590;28;19932;-56
2023/04/17 10:24:42;;;;;;;;;;;;;;;31.79;39.85;102623.38;5053638;28;19928;-55
2023/04/17 10:27:26;;;;;;;;;;;;;;;30.51;40.58;102611.44;5053540;28;19917;-57
2023/04/17 10:30:03;;;;;;;;;;;;;;;30.56;40.68;102610.56;5052494;28;19924;-54
2023/04/17 10:32:28;;;;;;;;;;;;;;;30.50;40.93;102617.25;5052018;28;19948;-55
2023/04/17 10:34:58;;;;;;;;;;;;;;;31.69;38.99;102616.81;5034257;28;19928;-52
2023/04/17 10:37:43;;;;;;;;;;;;;;;32.31;37.94;102626.19;5052004;28;19917;-55
2023/04/17 10:40:09;;;;;;;;;;;;;;;33.16;36.62;102615.00;5053406;28;19925;-56
2023/04/17 10:42:34;;;;;;;;;;;;;;;34.22;35.34;102620.75;5053465;28;20016;-55
2023/04/17 10:45:04;;;;;;;;;;;;;;;33.33;36.16;102621.84;5053304;28;19921;-57
2023/04/17 10:47:31;;;;;;;;;;;;;;;33.42;35.44;102619.16;5053264;28;19943;-54
2023/04/17 10:49:59;;;;;;;;;;;;;;;33.98;34.69;102619.09;5049743;28;19940;-57
2023/04/17 10:52:31;;;;;;;;;;;;;;;34.08;34.03;102618.84;5059026;28;19920;-56
2023/04/17 10:55:01;;;;;;;;;;;;;;;33.91;33.94;102619.50;5073240;28;19917;-58
2023/04/17 10:57:45;;;;;;;;;;;;;;;34.32;32.50;102612.16;5073164;28;19921;-56
2023/04/17 11:00:11;;;;;;;;;;;;;;;32.40;33.18;102606.94;5071929;28;19917;-55
2023/04/17 11:02:37;;;;;;;;;;;;;;;32.60;33.11;102603.81;5072846;28;20008;-58
2023/04/17 11:05:06;;;;;;;;;;;;;;;33.46;32.34;102609.16;5073183;28;19917;-56
2023/04/17 11:07:31;;;;;;;;;;;;;;;32.73;32.14;102601.38;5072644;28;19931;-53
2023/04/17 11:09:57;;;;;;;;;;;;;;;32.93;32.11;102596.63;5073485;28;19916;-56
2023/04/17 11:12:22;;;;;;;;;;;;;;;32.92;32.03;102595.78;5072688;28;19920;-55
2023/04/17 11:14:47;;;;;;;;;;;;;;;32.90;32.35;102589.72;5073058;28;19921;-51
2023/04/17 11:17:12;;;;;;;;;;;;;;;33.53;31.68;102592.91;5072907;28;19952;-55
2023/04/17 11:19:38;;;;;;;;;;;;;;;33.26;31.09;102588.19;5071751;28;19928;-56
2023/04/17 11:22:04;;;;;;;;;;;;;;;33.71;31.27;102591.09;5072326;28;19924;-55
2023/04/17 11:24:30;;;;;;;;;;;;;;;34.74;30.39;102596.06;5072876;28;19980;-56
2023/04/17 11:26:57;;;;;;;;;;;;;;;34.59;30.16;102594.53;5071487;28;19917;-58
2023/04/17 11:29:23;;;;;;;;;;;;;;;34.91;29.75;102588.97;5073330;28;19917;-53
2023/04/17 11:31:50;;;;;;;;;;;;;;;34.53;29.90;102595.00;5074590;28;19917;-54
2023/04/17 11:34:15;;;;;;;;;;;;;;;35.03;30.36;102596.72;5074779;28;19917;-52
2023/04/17 11:36:56;;;;;;;;;;;;;;;35.94;28.36;102596.19;5076395;28;19912;-53
2023/04/17 11:39:25;;;;;;;;;;;;;;;35.54;27.93;102597.19;5076214;28;19924;-56
2023/04/17 11:41:50;;;;;;;;;;;;;;;34.93;29.16;102585.84;5074730;28;20736;-55
2023/04/17 11:44:16;;;;;;;;;;;;;;;35.37;28.20;102589.59;5076779;28;19936;-57
2023/04/17 11:46:41;;;;;;;;;;;;;;;36.10;28.60;102587.34;5076527;28;19944;-53
2023/04/17 11:49:10;;;;;;;;;;;;;;;35.89;29.53;102583.25;5075871;28;21382;-55
2023/04/17 11:51:35;;;;;;;;;;;;;;;35.59;27.64;102591.44;5075656;28;19964;-55
2023/04/17 11:54:00;;;;;;;;;;;;;;;35.78;27.51;102583.91;5076410;28;19921;-55
2023/04/17 11:56:29;;;;;;;;;;;;;;;36.12;27.11;102588.66;5076523;28;19949;-55
2023/04/17 11:58:56;;;;;;;;;;;;;;;36.51;27.38;102590.69;5076293;28;19916;-59
2023/04/17 12:01:25;;;;;;;;;;;;;;;36.25;27.44;102589.63;5075767;28;19924;-57
2023/04/17 12:03:53;;;;;;;;;;;;;;;35.50;27.66;102585.00;5076247;28;19921;-54
2023/04/17 12:06:20;;;;;;;;;;;;;;;34.92;27.53;102573.09;5075627;28;19948;-52
2023/04/17 12:08:49;;;;;;;;;;;;;;;35.37;28.35;102578.47;5075837;28;19912;-55
2023/04/17 12:11:31;;;;;;;;;;;;;;;35.69;26.83;102573.63;5075927;28;19983;-55
2023/04/17 12:13:57;;;;;;;;;;;;;;;35.47;26.86;102577.31;5076112;28;19980;-53
2023/04/17 12:16:25;;;;;;;;;;;;;;;34.80;27.18;102582.03;5075966;28;19940;-56
2023/04/17 12:18:55;;;;;;;;;;;;;;;35.33;26.11;102585.00;5073665;28;19920;-55
2023/04/17 12:21:20;;;;;;;;;;;;;;;35.70;25.30;102579.97;5075446;28;20176;-56
2023/04/17 12:23:47;;;;;;;;;;;;;;;35.65;25.29;102580.97;5073714;28;19968;-55
2023/04/17 12:26:13;;;;;;;;;;;;;;;35.28;25.86;102581.22;5075848;28;19916;-58
2023/04/17 12:28:38;;;;;;;;;;;;;;;35.96;26.38;102581.94;5075302;28;19928;-55
2023/04/17 12:31:04;;;;;;;;;;;;;;;36.28;25.55;102588.94;5075534;28;19917;-57
2023/04/17 12:33:32;;;;;;;;;;;;;;;37.50;24.41;102585.97;5075418;28;19997;-57